St Paul Island Airport St Paul Island US
ICAO: PASN
IATA:
Category: Medium
Scheduled Services:

Elevation: 63 ft
TransAlt. 0 ft.

Airport Communications:
ASOS:135.75
ANCHORAGE CNTR:119.1
CTAF:122.3
COLD BAY RDO:122.45
NWS OBSVR:122

PASN Zoom In..

If you have problems with the map follow the link
https://www.worldairports.se/pages/airport.php?
ICAO=PASN

Runways:

(A) RW 18 length 6500 ft width 150 ft
---- / hdg 180

(B) RW 36 length 6500 ft width 150 ft
ILS 109.90 / hdg 360

Location; PASN
Day. 19 / Time. 19.07 Zulu
* Altimeter: 29.38
* Temperature: 00° c. 32°f.
* Wind from: 220° Speed 06 kn.
Dewpoint: -02° c.
Visibility: 4 Statute Miles.
Clouds: Scattered 900 ft.
Clouds: Overcast 1900 ft.
Conditions: Light Snow.Conditions: Mist.

PASN 191907Z AUTO 22006KT 4SM -SN BR SCT009 OVC019 00/M02 A2938 RMK AO2 P0000 T00001022 TSNO $


Wind From 220°
Speed 06 kn.

 
 
jpsmedia worldairports.se 2020   terms of use